createdAt,value
2023-05-07T08:51:53.506Z,27.30
2023-05-07T08:54:24.864Z,28.50
2023-05-07T08:56:54.633Z,30.60
2023-05-07T08:59:22.522Z,31.20
2023-05-07T09:01:50.552Z,30.80
2023-05-07T09:04:18.411Z,31.00
2023-05-07T09:06:46.285Z,31.80
2023-05-07T09:09:19.363Z,32.50
2023-05-07T09:11:47.214Z,32.60
2023-05-07T09:14:15.118Z,31.90
2023-05-07T09:16:43.941Z,31.50
2023-05-07T09:19:11.674Z,30.80
2023-05-07T09:21:39.385Z,29.50
2023-05-07T09:24:07.969Z,29.00
2023-05-07T09:26:37.099Z,28.00
2023-05-07T09:29:05.056Z,27.60
2023-05-07T09:31:32.893Z,27.40
2023-05-07T09:34:01.678Z,27.10
2023-05-07T09:36:30.268Z,27.00
2023-05-07T09:39:01.169Z,26.90
2023-05-07T09:41:28.970Z,27.00
2023-05-07T09:43:58.742Z,27.30
2023-05-07T09:46:30.955Z,27.60
2023-05-07T09:48:59.875Z,27.40
2023-05-07T09:51:32.174Z,27.20
2023-05-07T09:54:01.870Z,27.50
2023-05-07T09:56:31.165Z,27.90
2023-05-07T09:59:02.170Z,28.20
2023-05-07T10:01:32.778Z,28.70
2023-05-07T10:04:01.623Z,28.50
2023-05-07T10:06:31.215Z,28.30
2023-05-07T10:09:00.509Z,28.40
2023-05-07T10:11:28.584Z,28.70
2023-05-07T10:13:56.734Z,28.90
2023-05-07T10:16:26.865Z,29.50
2023-05-07T10:18:56.190Z,30.00
2023-05-07T10:21:25.806Z,30.20
2023-05-07T10:23:59.753Z,30.40
2023-05-07T10:26:30.737Z,30.70
2023-05-07T10:29:04.077Z,30.90
2023-05-07T10:31:45.699Z,31.00
2023-05-07T10:34:18.097Z,30.80
2023-05-07T10:36:46.463Z,30.90
2023-05-07T10:39:15.078Z,30.80
2023-05-07T10:41:42.801Z,30.80
2023-05-07T10:44:10.726Z,31.20
2023-05-07T10:46:40.409Z,31.20
2023-05-07T10:49:09.272Z,31.40
2023-05-07T10:51:37.449Z,31.30
2023-05-07T10:54:23.426Z,31.40
2023-05-07T10:56:52.009Z,31.60
2023-05-07T10:59:44.173Z,31.40
2023-05-07T11:02:15.120Z,31.40
2023-05-07T11:04:43.198Z,31.50
2023-05-07T11:07:30.157Z,31.60
2023-05-07T11:10:04.853Z,31.60
2023-05-07T11:12:54.439Z,31.70
2023-05-07T11:15:39.909Z,31.50
2023-05-07T11:18:09.619Z,31.80
2023-05-07T11:20:55.007Z,31.70
2023-05-07T11:24:00.637Z,31.50
2023-05-07T11:26:30.172Z,31.30
2023-05-07T11:28:58.232Z,31.70
2023-05-07T11:31:29.583Z,31.10
2023-05-07T11:33:59.555Z,30.40
2023-05-07T11:36:28.460Z,31.00
2023-05-07T11:38:56.958Z,31.40
2023-05-07T11:41:24.672Z,31.50
2023-05-07T11:44:00.504Z,31.60
2023-05-07T11:46:29.705Z,31.70
2023-05-07T11:48:59.111Z,31.70
2023-05-07T11:51:28.016Z,31.60
2023-05-07T11:53:55.945Z,31.20
2023-05-07T11:56:23.783Z,30.70
2023-05-07T11:58:52.952Z,31.20
2023-05-07T12:01:20.670Z,31.00
2023-05-07T12:03:48.790Z,31.20
2023-05-07T12:06:19.049Z,31.00
2023-05-07T12:08:48.461Z,31.40
2023-05-07T12:11:19.445Z,31.70
2023-05-07T12:13:47.177Z,31.40
2023-05-07T12:16:15.886Z,31.30
2023-05-07T12:18:44.377Z,30.80
2023-05-07T12:21:12.832Z,30.90
2023-05-07T12:23:42.187Z,30.50
2023-05-07T12:26:11.221Z,30.50
2023-05-07T12:28:40.607Z,30.40
2023-05-07T12:31:09.106Z,30.10
2023-05-07T12:33:37.788Z,30.10
2023-05-07T12:36:08.264Z,29.90
2023-05-07T12:38:41.642Z,30.40
2023-05-07T12:41:11.651Z,30.80
2023-05-07T12:43:39.698Z,30.70
2023-05-07T12:46:08.739Z,30.80
2023-05-07T12:48:39.527Z,31.20
2023-05-07T12:51:08.520Z,31.20
2023-05-07T12:53:44.179Z,31.20
2023-05-07T12:56:12.107Z,31.00
2023-05-07T12:58:39.835Z,30.70
2023-05-07T13:01:10.683Z,30.40
2023-05-07T13:03:40.070Z,29.80
2023-05-07T13:06:10.515Z,29.30
2023-05-07T13:08:41.207Z,28.70
2023-05-07T13:11:11.908Z,28.30
2023-05-07T13:13:40.947Z,28.00
2023-05-07T13:16:11.091Z,27.90
2023-05-07T13:18:41.245Z,27.80
2023-05-07T13:21:09.336Z,27.60
2023-05-07T13:23:39.330Z,27.50
2023-05-07T13:26:18.468Z,27.30
2023-05-07T13:28:54.622Z,27.10
2023-05-07T13:31:22.486Z,26.90
2023-05-07T13:33:50.469Z,26.60
2023-05-07T13:36:18.273Z,26.40
2023-05-07T13:38:46.061Z,26.30
2023-05-07T13:41:14.097Z,25.90
2023-05-07T13:43:41.900Z,25.60
2023-05-07T13:46:11.095Z,25.40
2023-05-07T13:48:38.969Z,25.20
2023-05-07T13:51:06.768Z,24.10
2023-05-07T13:53:34.552Z,22.10
2023-05-07T13:56:02.360Z,20.80
2023-05-07T13:58:30.215Z,20.00
2023-05-07T14:00:57.945Z,19.50
2023-05-07T14:03:27.202Z,19.50
2023-05-07T14:05:55.073Z,19.40
2023-05-07T14:08:22.910Z,19.30
2023-05-07T14:10:50.639Z,19.20
2023-05-07T14:13:18.451Z,19.60
2023-05-07T14:15:47.702Z,19.60
2023-05-07T14:18:15.625Z,19.70
2023-05-07T14:20:47.271Z,19.50
2023-05-07T14:23:15.081Z,19.10
2023-05-07T14:25:44.384Z,18.70
2023-05-07T14:28:12.066Z,18.50
2023-05-07T14:30:39.833Z,17.90
2023-05-07T14:33:07.716Z,17.20
2023-05-07T14:35:36.289Z,17.60
2023-05-07T14:38:05.391Z,17.50
2023-05-07T14:40:33.113Z,17.10
2023-05-07T14:43:01.067Z,17.00
2023-05-07T14:45:28.753Z,16.80
2023-05-07T14:47:56.609Z,16.20
2023-05-07T14:50:24.508Z,16.20
2023-05-07T14:52:52.210Z,16.60
2023-05-07T14:55:21.293Z,16.30
2023-05-07T14:57:49.306Z,16.40
2023-05-07T15:00:17.326Z,16.40
2023-05-07T15:02:45.401Z,16.00
2023-05-07T15:05:13.843Z,16.10
2023-05-07T15:07:41.821Z,16.10
2023-05-07T15:10:10.367Z,16.20
2023-05-07T15:12:39.424Z,16.20
2023-05-07T15:15:08.522Z,16.00
2023-05-07T15:17:36.360Z,16.30
2023-05-07T15:20:05.782Z,16.30
2023-05-07T15:22:33.556Z,16.20
2023-05-07T15:25:01.232Z,16.30
2023-05-07T15:27:29.079Z,16.40
2023-05-07T15:29:58.147Z,16.30
2023-05-07T15:32:26.156Z,15.90
2023-05-07T15:34:53.941Z,16.30
2023-05-07T15:37:21.763Z,16.10
2023-05-07T15:39:49.454Z,16.20
2023-05-07T15:42:17.284Z,16.40
2023-05-07T15:44:45.728Z,15.70
2023-05-07T15:47:15.404Z,16.10
2023-05-07T15:49:43.379Z,15.90
2023-05-07T15:52:12.043Z,16.20
2023-05-07T15:54:39.732Z,15.60
2023-05-07T15:57:07.978Z,16.00
2023-05-07T15:59:36.186Z,16.10
2023-05-07T16:02:04.031Z,16.10
2023-05-07T16:04:33.233Z,16.20
2023-05-07T16:07:00.908Z,16.20
2023-05-07T16:09:29.275Z,16.30
2023-05-07T16:11:57.113Z,16.20
2023-05-07T16:14:24.947Z,16.20
2023-05-07T16:16:54.562Z,15.60
2023-05-07T16:19:23.945Z,15.90
2023-05-07T16:21:53.003Z,16.00
2023-05-07T16:24:20.753Z,15.90
2023-05-07T16:26:48.513Z,16.00
2023-05-07T16:29:16.672Z,16.00
2023-05-07T16:31:44.552Z,16.10
2023-05-07T16:34:12.337Z,16.20
2023-05-07T16:36:40.247Z,15.80
2023-05-07T16:39:09.440Z,16.10
2023-05-07T16:41:37.186Z,16.10
2023-05-07T16:44:05.466Z,16.00
2023-05-07T16:46:33.229Z,16.20
2023-05-07T16:49:00.987Z,16.40
2023-05-07T16:51:29.284Z,16.20
2023-05-07T16:53:57.058Z,16.40
2023-05-07T16:56:26.138Z,16.40
2023-05-07T16:58:53.930Z,16.30
2023-05-07T17:01:21.692Z,16.50
2023-05-07T17:03:49.580Z,16.10
2023-05-07T17:06:17.616Z,16.30
2023-05-07T17:08:45.410Z,16.40
2023-05-07T17:11:13.135Z,16.50
2023-05-07T17:13:42.149Z,16.30
2023-05-07T17:16:09.985Z,16.50
2023-05-07T17:18:37.764Z,16.60
2023-05-07T17:21:05.668Z,16.60
2023-05-07T17:23:33.338Z,16.60
2023-05-07T17:26:01.030Z,16.50
2023-05-07T17:28:28.806Z,16.70
2023-05-07T17:30:57.950Z,16.60
2023-05-07T17:33:25.751Z,16.60
2023-05-07T17:35:54.642Z,16.50
2023-05-07T17:38:22.421Z,16.60
2023-05-07T17:40:50.312Z,16.40
2023-05-07T17:43:18.106Z,16.20
2023-05-07T17:45:46.650Z,16.70
2023-05-07T17:48:15.945Z,16.50
2023-05-07T17:50:44.358Z,16.40
2023-05-07T17:53:12.406Z,16.40
2023-05-07T17:55:43.574Z,16.60
2023-05-07T17:58:11.626Z,16.70
2023-05-07T18:00:39.754Z,16.60
2023-05-07T18:03:07.693Z,16.70
2023-05-07T18:05:39.344Z,16.70
2023-05-07T18:08:07.567Z,16.70
2023-05-07T18:10:35.383Z,16.90
2023-05-07T18:13:03.284Z,16.90
2023-05-07T18:15:31.143Z,17.00
2023-05-07T18:17:58.925Z,17.20
2023-05-07T18:20:26.778Z,17.20
2023-05-07T18:22:55.851Z,16.90
2023-05-07T18:25:23.769Z,16.90
2023-05-07T18:27:51.549Z,17.20
2023-05-07T18:30:19.416Z,16.90
2023-05-07T18:32:47.263Z,16.80
2023-05-07T18:35:16.775Z,17.10
2023-05-07T18:37:44.516Z,17.20
2023-05-07T18:40:14.654Z,16.90
2023-05-07T18:42:42.659Z,16.80
2023-05-07T18:45:11.325Z,16.80
2023-05-07T18:47:39.065Z,16.80
2023-05-07T18:50:08.392Z,16.90
2023-05-07T18:52:37.151Z,16.80
2023-05-07T18:55:05.611Z,16.50
2023-05-07T18:57:34.780Z,16.90
2023-05-07T19:00:02.602Z,16.90
2023-05-07T19:02:30.498Z,16.90
2023-05-07T19:04:58.369Z,16.60
2023-05-07T19:07:26.240Z,16.90
2023-05-07T19:10:04.232Z,16.90
2023-05-07T19:12:34.941Z,16.80
2023-05-07T19:15:02.751Z,16.80
2023-05-07T19:17:30.582Z,16.70
2023-05-07T19:19:58.583Z,16.90
2023-05-07T19:22:26.369Z,16.10
2023-05-07T19:24:54.374Z,16.70
2023-05-07T19:27:22.207Z,16.20
2023-05-07T19:29:51.463Z,16.80
2023-05-07T19:32:21.219Z,16.60
2023-05-07T19:34:49.424Z,16.60
2023-05-07T19:37:17.330Z,16.50
2023-05-07T19:39:45.214Z,16.50
2023-05-07T19:42:13.995Z,16.70
2023-05-07T19:44:41.734Z,16.60
2023-05-07T19:47:12.005Z,16.80
2023-05-07T19:49:39.749Z,16.70
2023-05-07T19:52:07.527Z,16.50
2023-05-07T19:54:35.267Z,16.50
2023-05-07T19:57:03.132Z,16.50
2023-05-07T19:59:30.963Z,16.70
2023-05-07T20:01:58.758Z,16.50
2023-05-07T20:04:32.824Z,16.70
2023-05-07T20:07:00.877Z,17.10
2023-05-07T20:09:28.679Z,16.30
2023-05-07T20:11:56.573Z,16.90
2023-05-07T20:14:24.445Z,16.70
2023-05-07T20:16:52.220Z,16.90
2023-05-07T20:19:20.511Z,16.90
2023-05-07T20:21:49.610Z,16.70
2023-05-07T20:24:19.115Z,16.80
2023-05-07T20:26:46.949Z,16.80
2023-05-07T20:29:14.747Z,16.70
2023-05-07T20:31:43.750Z,17.00
2023-05-07T20:34:11.510Z,17.10
2023-05-07T20:36:39.462Z,16.50
2023-05-07T20:39:09.005Z,16.90
2023-05-07T20:41:36.813Z,16.80
2023-05-07T20:44:04.777Z,16.20
2023-05-07T20:46:32.670Z,16.80
2023-05-07T20:49:00.946Z,16.80
2023-05-07T20:51:28.953Z,16.70
2023-05-07T20:53:56.802Z,16.40
2023-05-07T20:56:26.609Z,16.70
2023-05-07T20:58:54.354Z,16.80
2023-05-07T21:01:22.184Z,16.80
2023-05-07T21:03:53.724Z,16.90
2023-05-07T21:06:21.597Z,16.70
2023-05-07T21:08:49.372Z,16.80
2023-05-07T21:11:17.868Z,16.90
2023-05-07T21:13:46.999Z,16.90
2023-05-07T21:16:15.361Z,16.70
2023-05-07T21:18:43.119Z,16.60
2023-05-07T21:21:11.432Z,16.70
2023-05-07T21:23:39.234Z,16.50
2023-05-07T21:26:07.094Z,16.80
2023-05-07T21:28:35.011Z,16.70
2023-05-07T21:31:04.136Z,16.60
2023-05-07T21:33:31.989Z,16.50
2023-05-07T21:35:59.741Z,16.20
2023-05-07T21:38:27.481Z,16.70
2023-05-07T21:40:55.421Z,16.40
2023-05-07T21:43:23.220Z,16.80
2023-05-07T21:45:51.228Z,16.40
2023-05-07T21:48:22.089Z,16.40
2023-05-07T21:50:50.061Z,16.70
2023-05-07T21:53:17.797Z,16.50
2023-05-07T21:55:45.547Z,16.60
2023-05-07T21:58:13.329Z,16.70
2023-05-07T22:00:41.137Z,16.90
2023-05-07T22:03:08.908Z,16.60
2023-05-07T22:05:38.092Z,16.70
2023-05-07T22:08:06.161Z,16.70
2023-05-07T22:10:34.030Z,16.70
2023-05-07T22:13:01.828Z,16.90
2023-05-07T22:15:29.672Z,16.70
2023-05-07T22:17:57.440Z,16.80
2023-05-07T22:20:25.634Z,16.90
2023-05-07T22:22:55.977Z,16.70
2023-05-07T22:25:24.784Z,16.70
2023-05-07T22:27:53.352Z,16.70
2023-05-07T22:30:21.080Z,16.60
2023-05-07T22:32:48.838Z,16.50
2023-05-07T22:35:16.791Z,16.70
2023-05-07T22:37:44.635Z,16.60
2023-05-07T22:40:14.463Z,16.50
2023-05-07T22:42:42.380Z,16.60
2023-05-07T22:45:11.219Z,16.60
2023-05-07T22:47:38.966Z,16.30
2023-05-07T22:50:07.767Z,16.30
2023-05-07T22:52:35.825Z,16.60
2023-05-07T22:55:03.723Z,16.40
2023-05-07T22:57:32.797Z,16.40
2023-05-07T23:00:00.867Z,16.70
2023-05-07T23:02:29.104Z,16.50
2023-05-07T23:04:59.675Z,16.40
2023-05-07T23:07:27.455Z,16.40
2023-05-07T23:09:55.215Z,16.40
2023-05-07T23:12:23.010Z,16.50
2023-05-07T23:14:52.163Z,16.50
2023-05-07T23:17:19.912Z,16.70
2023-05-07T23:19:47.764Z,16.50
2023-05-07T23:22:15.882Z,16.60
2023-05-07T23:24:43.725Z,16.70
2023-05-07T23:27:11.504Z,16.50
2023-05-07T23:29:39.218Z,16.50
2023-05-07T23:32:08.360Z,16.70
2023-05-07T23:34:36.085Z,16.60
2023-05-07T23:37:03.884Z,16.60
2023-05-07T23:39:31.613Z,16.40
2023-05-07T23:41:59.353Z,16.70
2023-05-07T23:44:27.078Z,16.40
2023-05-07T23:46:54.871Z,16.60
2023-05-07T23:49:23.979Z,16.50
2023-05-07T23:51:51.737Z,16.80
2023-05-07T23:54:19.490Z,16.50
2023-05-07T23:56:47.245Z,16.70
2023-05-07T23:59:14.938Z,16.70
